sensor_id;sensor_type;location;lat;lon;timestamp;temperature;humidity
47805;DHT22;33568;45.286;9.900;2023-07-08T00:00:44;27.20;80.60
47805;DHT22;33568;45.286;9.900;2023-07-08T00:03:11;27.20;81.10
47805;DHT22;33568;45.286;9.900;2023-07-08T00:05:38;27.10;81.70
47805;DHT22;33568;45.286;9.900;2023-07-08T00:08:05;27.10;81.90
47805;DHT22;33568;45.286;9.900;2023-07-08T00:10:31;27.10;81.80
47805;DHT22;33568;45.286;9.900;2023-07-08T00:12:58;27.10;81.80
47805;DHT22;33568;45.286;9.900;2023-07-08T00:15:27;27.10;82.10
47805;DHT22;33568;45.286;9.900;2023-07-08T00:17:55;27.10;81.90
47805;DHT22;33568;45.286;9.900;2023-07-08T00:20:51;27.10;81.70
47805;DHT22;33568;45.286;9.900;2023-07-08T00:23:18;27.10;81.10
47805;DHT22;33568;45.286;9.900;2023-07-08T00:25:48;27.00;81.60
47805;DHT22;33568;45.286;9.900;2023-07-08T00:28:20;27.00;81.80
47805;DHT22;33568;45.286;9.900;2023-07-08T00:30:48;26.90;81.80
47805;DHT22;33568;45.286;9.900;2023-07-08T00:33:16;26.90;82.10
47805;DHT22;33568;45.286;9.900;2023-07-08T00:35:44;26.90;81.50
47805;DHT22;33568;45.286;9.900;2023-07-08T00:38:24;26.80;80.90
47805;DHT22;33568;45.286;9.900;2023-07-08T00:41:08;26.70;80.50
47805;DHT22;33568;45.286;9.900;2023-07-08T00:43:43;26.70;81.20
47805;DHT22;33568;45.286;9.900;2023-07-08T00:48:41;26.60;82.50
47805;DHT22;33568;45.286;9.900;2023-07-08T00:51:09;26.60;82.90
47805;DHT22;33568;45.286;9.900;2023-07-08T00:53:38;26.60;83.10
47805;DHT22;33568;45.286;9.900;2023-07-08T00:56:23;26.70;83.40
47805;DHT22;33568;45.286;9.900;2023-07-08T00:59:07;26.70;82.20
47805;DHT22;33568;45.286;9.900;2023-07-08T01:01:37;26.60;82.80
47805;DHT22;33568;45.286;9.900;2023-07-08T01:04:20;26.70;83.10
47805;DHT22;33568;45.286;9.900;2023-07-08T01:06:51;26.70;82.10
47805;DHT22;33568;45.286;9.900;2023-07-08T01:09:24;26.70;82.50
47805;DHT22;33568;45.286;9.900;2023-07-08T01:11:55;26.60;81.50
47805;DHT22;33568;45.286;9.900;2023-07-08T01:14:22;26.60;82.20
47805;DHT22;33568;45.286;9.900;2023-07-08T01:16:50;26.60;82.80
47805;DHT22;33568;45.286;9.900;2023-07-08T01:19:20;26.60;82.80
47805;DHT22;33568;45.286;9.900;2023-07-08T01:24:20;26.60;82.30
47805;DHT22;33568;45.286;9.900;2023-07-08T01:26:47;26.60;83.00
47805;DHT22;33568;45.286;9.900;2023-07-08T01:29:13;26.60;83.00
47805;DHT22;33568;45.286;9.900;2023-07-08T01:31:40;26.50;83.50
47805;DHT22;33568;45.286;9.900;2023-07-08T01:34:10;26.50;83.70
47805;DHT22;33568;45.286;9.900;2023-07-08T01:36:41;26.50;83.70
47805;DHT22;33568;45.286;9.900;2023-07-08T01:39:15;26.50;83.50
47805;DHT22;33568;45.286;9.900;2023-07-08T01:41:44;26.60;82.80
47805;DHT22;33568;45.286;9.900;2023-07-08T01:44:29;26.50;82.90
47805;DHT22;33568;45.286;9.900;2023-07-08T01:47:07;26.50;82.10
47805;DHT22;33568;45.286;9.900;2023-07-08T01:49:37;26.50;82.20
47805;DHT22;33568;45.286;9.900;2023-07-08T01:52:04;26.40;82.40
47805;DHT22;33568;45.286;9.900;2023-07-08T01:54:31;26.40;83.10
47805;DHT22;33568;45.286;9.900;2023-07-08T01:56:59;26.40;83.10
47805;DHT22;33568;45.286;9.900;2023-07-08T01:59:27;26.40;83.60
47805;DHT22;33568;45.286;9.900;2023-07-08T02:01:54;26.40;83.30
47805;DHT22;33568;45.286;9.900;2023-07-08T02:04:22;26.40;83.20
47805;DHT22;33568;45.286;9.900;2023-07-08T02:06:53;26.40;82.90
47805;DHT22;33568;45.286;9.900;2023-07-08T02:09:21;26.40;82.90
47805;DHT22;33568;45.286;9.900;2023-07-08T02:11:48;26.40;82.80
47805;DHT22;33568;45.286;9.900;2023-07-08T02:14:14;26.50;82.80
47805;DHT22;33568;45.286;9.900;2023-07-08T02:16:41;26.50;82.90
47805;DHT22;33568;45.286;9.900;2023-07-08T02:19:08;26.50;82.90
47805;DHT22;33568;45.286;9.900;2023-07-08T02:21:35;26.50;83.10
47805;DHT22;33568;45.286;9.900;2023-07-08T02:24:01;26.60;82.60
47805;DHT22;33568;45.286;9.900;2023-07-08T02:26:28;26.60;82.10
47805;DHT22;33568;45.286;9.900;2023-07-08T02:28:55;26.60;82.00
47805;DHT22;33568;45.286;9.900;2023-07-08T02:31:22;26.50;81.80
47805;DHT22;33568;45.286;9.900;2023-07-08T02:33:51;26.50;81.70
47805;DHT22;33568;45.286;9.900;2023-07-08T02:36:18;26.50;82.30
47805;DHT22;33568;45.286;9.900;2023-07-08T02:38:45;26.50;82.40
47805;DHT22;33568;45.286;9.900;2023-07-08T02:41:11;26.40;82.70
47805;DHT22;33568;45.286;9.900;2023-07-08T02:43:39;26.40;82.90
47805;DHT22;33568;45.286;9.900;2023-07-08T02:46:06;26.40;82.70
47805;DHT22;33568;45.286;9.900;2023-07-08T02:48:32;26.20;83.00
47805;DHT22;33568;45.286;9.900;2023-07-08T02:51:00;26.20;83.60
47805;DHT22;33568;45.286;9.900;2023-07-08T02:53:27;26.20;83.70
47805;DHT22;33568;45.286;9.900;2023-07-08T02:55:53;26.20;83.90
47805;DHT22;33568;45.286;9.900;2023-07-08T02:58:20;26.20;84.10
47805;DHT22;33568;45.286;9.900;2023-07-08T03:00:54;26.20;84.00
47805;DHT22;33568;45.286;9.900;2023-07-08T03:03:21;26.20;83.70
47805;DHT22;33568;45.286;9.900;2023-07-08T03:06:00;26.10;83.50
47805;DHT22;33568;45.286;9.900;2023-07-08T03:08:28;26.10;83.20
47805;DHT22;33568;45.286;9.900;2023-07-08T03:11:05;26.00;83.50
47805;DHT22;33568;45.286;9.900;2023-07-08T03:13:33;26.10;84.00
47805;DHT22;33568;45.286;9.900;2023-07-08T03:16:02;26.00;84.30
47805;DHT22;33568;45.286;9.900;2023-07-08T03:18:29;26.10;84.60
47805;DHT22;33568;45.286;9.900;2023-07-08T03:20:57;26.00;84.10
47805;DHT22;33568;45.286;9.900;2023-07-08T03:23:25;26.00;83.80
47805;DHT22;33568;45.286;9.900;2023-07-08T03:25:53;26.00;84.30
47805;DHT22;33568;45.286;9.900;2023-07-08T03:28:21;25.90;84.90
47805;DHT22;33568;45.286;9.900;2023-07-08T03:30:52;25.90;85.40
47805;DHT22;33568;45.286;9.900;2023-07-08T03:33:19;25.90;85.50
47805;DHT22;33568;45.286;9.900;2023-07-08T03:35:46;25.90;85.30
47805;DHT22;33568;45.286;9.900;2023-07-08T03:38:13;25.90;84.90
47805;DHT22;33568;45.286;9.900;2023-07-08T03:40:39;25.90;84.50
47805;DHT22;33568;45.286;9.900;2023-07-08T03:43:06;25.80;84.50
47805;DHT22;33568;45.286;9.900;2023-07-08T03:45:33;25.70;84.70
47805;DHT22;33568;45.286;9.900;2023-07-08T03:48:00;25.80;85.00
47805;DHT22;33568;45.286;9.900;2023-07-08T03:50:27;25.80;85.00
47805;DHT22;33568;45.286;9.900;2023-07-08T03:52:54;25.80;85.20
47805;DHT22;33568;45.286;9.900;2023-07-08T03:55:27;25.80;85.10
47805;DHT22;33568;45.286;9.900;2023-07-08T03:57:56;25.70;85.10
47805;DHT22;33568;45.286;9.900;2023-07-08T04:00:23;25.70;85.70
47805;DHT22;33568;45.286;9.900;2023-07-08T04:02:49;25.70;86.00
47805;DHT22;33568;45.286;9.900;2023-07-08T04:05:22;25.70;86.10
47805;DHT22;33568;45.286;9.900;2023-07-08T04:07:49;25.60;86.40
47805;DHT22;33568;45.286;9.900;2023-07-08T04:10:16;25.50;86.50
47805;DHT22;33568;45.286;9.900;2023-07-08T04:12:45;25.50;86.80
47805;DHT22;33568;45.286;9.900;2023-07-08T04:15:12;25.50;87.50
47805;DHT22;33568;45.286;9.900;2023-07-08T04:17:47;25.50;87.50
47805;DHT22;33568;45.286;9.900;2023-07-08T04:20:17;25.60;87.10
47805;DHT22;33568;45.286;9.900;2023-07-08T04:22:45;25.60;86.80
47805;DHT22;33568;45.286;9.900;2023-07-08T04:25:12;25.60;86.60
47805;DHT22;33568;45.286;9.900;2023-07-08T04:27:40;25.60;86.40
47805;DHT22;33568;45.286;9.900;2023-07-08T04:30:19;25.60;86.40
47805;DHT22;33568;45.286;9.900;2023-07-08T04:32:47;25.60;86.90
47805;DHT22;33568;45.286;9.900;2023-07-08T04:35:15;25.60;87.50
47805;DHT22;33568;45.286;9.900;2023-07-08T04:37:42;25.70;87.40
47805;DHT22;33568;45.286;9.900;2023-07-08T04:40:18;25.70;87.40
47805;DHT22;33568;45.286;9.900;2023-07-08T04:42:45;25.70;87.30
47805;DHT22;33568;45.286;9.900;2023-07-08T04:45:15;25.80;87.30
47805;DHT22;33568;45.286;9.900;2023-07-08T04:47:42;25.90;87.00
47805;DHT22;33568;45.286;9.900;2023-07-08T04:50:10;25.90;86.80
47805;DHT22;33568;45.286;9.900;2023-07-08T04:52:37;26.00;86.90
47805;DHT22;33568;45.286;9.900;2023-07-08T04:55:04;26.00;87.50
47805;DHT22;33568;45.286;9.900;2023-07-08T04:57:30;26.10;86.90
47805;DHT22;33568;45.286;9.900;2023-07-08T04:59:57;26.20;86.60
47805;DHT22;33568;45.286;9.900;2023-07-08T05:02:23;26.20;86.60
47805;DHT22;33568;45.286;9.900;2023-07-08T05:04:50;26.20;86.40
47805;DHT22;33568;45.286;9.900;2023-07-08T05:07:16;26.30;86.20
47805;DHT22;33568;45.286;9.900;2023-07-08T05:09:44;26.40;86.10
47805;DHT22;33568;45.286;9.900;2023-07-08T05:12:11;26.40;86.10
47805;DHT22;33568;45.286;9.900;2023-07-08T05:14:38;26.40;86.20
47805;DHT22;33568;45.286;9.900;2023-07-08T05:17:04;26.40;86.30
47805;DHT22;33568;45.286;9.900;2023-07-08T05:19:31;26.40;86.50
47805;DHT22;33568;45.286;9.900;2023-07-08T05:21:58;26.40;86.60
47805;DHT22;33568;45.286;9.900;2023-07-08T05:24:24;26.40;86.70
47805;DHT22;33568;45.286;9.900;2023-07-08T05:26:51;26.40;86.60
47805;DHT22;33568;45.286;9.900;2023-07-08T05:29:17;26.50;86.60
47805;DHT22;33568;45.286;9.900;2023-07-08T05:31:43;26.50;86.50
47805;DHT22;33568;45.286;9.900;2023-07-08T05:34:10;26.50;86.60
47805;DHT22;33568;45.286;9.900;2023-07-08T05:36:36;26.50;86.30
47805;DHT22;33568;45.286;9.900;2023-07-08T05:39:03;26.60;86.00
47805;DHT22;33568;45.286;9.900;2023-07-08T05:41:32;26.70;85.70
47805;DHT22;33568;45.286;9.900;2023-07-08T05:44:02;26.80;85.40
47805;DHT22;33568;45.286;9.900;2023-07-08T05:46:46;26.90;85.10
47805;DHT22;33568;45.286;9.900;2023-07-08T05:49:15;27.00;84.80
47805;DHT22;33568;45.286;9.900;2023-07-08T05:51:46;27.00;84.60
47805;DHT22;33568;45.286;9.900;2023-07-08T05:54:18;27.10;84.50
47805;DHT22;33568;45.286;9.900;2023-07-08T05:56:45;27.20;84.40
47805;DHT22;33568;45.286;9.900;2023-07-08T05:59:12;27.20;84.10
47805;DHT22;33568;45.286;9.900;2023-07-08T06:01:39;27.20;83.80
47805;DHT22;33568;45.286;9.900;2023-07-08T06:04:06;27.20;83.80
47805;DHT22;33568;45.286;9.900;2023-07-08T06:06:34;27.20;83.90
47805;DHT22;33568;45.286;9.900;2023-07-08T06:09:03;27.20;83.80
47805;DHT22;33568;45.286;9.900;2023-07-08T06:11:31;27.40;83.80
47805;DHT22;33568;45.286;9.900;2023-07-08T06:13:57;27.50;83.50
47805;DHT22;33568;45.286;9.900;2023-07-08T06:16:28;27.70;82.80
47805;DHT22;33568;45.286;9.900;2023-07-08T06:18:59;27.90;81.90
47805;DHT22;33568;45.286;9.900;2023-07-08T06:21:26;27.90;81.70
47805;DHT22;33568;45.286;9.900;2023-07-08T06:23:56;28.00;81.40
47805;DHT22;33568;45.286;9.900;2023-07-08T06:26:22;28.10;81.10
47805;DHT22;33568;45.286;9.900;2023-07-08T06:28:50;28.20;80.70
47805;DHT22;33568;45.286;9.900;2023-07-08T06:31:18;28.30;80.60
47805;DHT22;33568;45.286;9.900;2023-07-08T06:33:47;28.20;80.20
47805;DHT22;33568;45.286;9.900;2023-07-08T06:36:15;28.20;80.00
47805;DHT22;33568;45.286;9.900;2023-07-08T06:38:41;28.00;80.10
47805;DHT22;33568;45.286;9.900;2023-07-08T06:41:08;27.90;80.70
47805;DHT22;33568;45.286;9.900;2023-07-08T06:43:36;27.70;81.30
47805;DHT22;33568;45.286;9.900;2023-07-08T06:46:17;27.80;81.60
47805;DHT22;33568;45.286;9.900;2023-07-08T06:48:45;28.00;81.30
47805;DHT22;33568;45.286;9.900;2023-07-08T06:51:13;28.20;81.30
47805;DHT22;33568;45.286;9.900;2023-07-08T06:53:39;28.30;81.10
47805;DHT22;33568;45.286;9.900;2023-07-08T06:56:07;28.30;80.60
47805;DHT22;33568;45.286;9.900;2023-07-08T06:58:35;28.20;80.60
47805;DHT22;33568;45.286;9.900;2023-07-08T07:01:02;28.10;80.60
47805;DHT22;33568;45.286;9.900;2023-07-08T07:03:28;28.10;80.20
47805;DHT22;33568;45.286;9.900;2023-07-08T07:05:55;28.30;80.00
47805;DHT22;33568;45.286;9.900;2023-07-08T07:08:22;28.40;79.40
47805;DHT22;33568;45.286;9.900;2023-07-08T07:10:49;28.50;79.00
47805;DHT22;33568;45.286;9.900;2023-07-08T07:13:15;28.60;78.30
47805;DHT22;33568;45.286;9.900;2023-07-08T07:15:42;28.80;77.50
47805;DHT22;33568;45.286;9.900;2023-07-08T07:18:09;28.90;76.90
47805;DHT22;33568;45.286;9.900;2023-07-08T07:20:37;29.00;76.60
47805;DHT22;33568;45.286;9.900;2023-07-08T07:23:04;29.10;76.10
47805;DHT22;33568;45.286;9.900;2023-07-08T07:25:31;29.30;75.80
47805;DHT22;33568;45.286;9.900;2023-07-08T07:27:58;29.30;75.20
47805;DHT22;33568;45.286;9.900;2023-07-08T07:30:25;29.30;74.80
47805;DHT22;33568;45.286;9.900;2023-07-08T07:32:51;29.20;74.90
47805;DHT22;33568;45.286;9.900;2023-07-08T07:35:18;29.40;75.10
47805;DHT22;33568;45.286;9.900;2023-07-08T07:37:45;29.50;74.50
47805;DHT22;33568;45.286;9.900;2023-07-08T07:40:12;29.60;74.30
47805;DHT22;33568;45.286;9.900;2023-07-08T07:42:43;29.70;74.20
47805;DHT22;33568;45.286;9.900;2023-07-08T07:45:11;29.80;73.60
47805;DHT22;33568;45.286;9.900;2023-07-08T07:47:38;29.90;73.10
47805;DHT22;33568;45.286;9.900;2023-07-08T07:50:06;29.90;72.10
47805;DHT22;33568;45.286;9.900;2023-07-08T07:52:34;29.90;71.40
47805;DHT22;33568;45.286;9.900;2023-07-08T07:55:02;29.90;70.60
47805;DHT22;33568;45.286;9.900;2023-07-08T07:57:29;29.90;70.20
47805;DHT22;33568;45.286;9.900;2023-07-08T07:59:56;30.00;70.80
47805;DHT22;33568;45.286;9.900;2023-07-08T08:02:22;30.10;70.30
47805;DHT22;33568;45.286;9.900;2023-07-08T08:04:49;30.20;70.00
47805;DHT22;33568;45.286;9.900;2023-07-08T08:07:15;30.40;70.10
47805;DHT22;33568;45.286;9.900;2023-07-08T08:09:42;30.50;70.10
47805;DHT22;33568;45.286;9.900;2023-07-08T08:12:11;30.40;69.80
47805;DHT22;33568;45.286;9.900;2023-07-08T08:14:38;30.40;68.50
47805;DHT22;33568;45.286;9.900;2023-07-08T08:17:05;30.40;68.10
47805;DHT22;33568;45.286;9.900;2023-07-08T08:19:32;30.60;67.90
47805;DHT22;33568;45.286;9.900;2023-07-08T08:21:59;30.70;67.80
47805;DHT22;33568;45.286;9.900;2023-07-08T08:24:26;30.70;67.80
47805;DHT22;33568;45.286;9.900;2023-07-08T08:26:52;30.80;68.00
47805;DHT22;33568;45.286;9.900;2023-07-08T08:29:19;31.00;67.90
47805;DHT22;33568;45.286;9.900;2023-07-08T08:31:45;30.90;67.30
47805;DHT22;33568;45.286;9.900;2023-07-08T08:34:12;31.00;67.10
47805;DHT22;33568;45.286;9.900;2023-07-08T08:36:38;31.10;66.90
47805;DHT22;33568;45.286;9.900;2023-07-08T08:39:05;31.20;66.80
47805;DHT22;33568;45.286;9.900;2023-07-08T08:41:35;31.40;66.80
47805;DHT22;33568;45.286;9.900;2023-07-08T08:44:03;31.50;66.10
47805;DHT22;33568;45.286;9.900;2023-07-08T08:49:27;31.70;64.50
47805;DHT22;33568;45.286;9.900;2023-07-08T08:51:55;31.70;63.90
47805;DHT22;33568;45.286;9.900;2023-07-08T08:54:22;31.70;65.00
47805;DHT22;33568;45.286;9.900;2023-07-08T08:57:10;31.70;64.70
47805;DHT22;33568;45.286;9.900;2023-07-08T08:59:44;31.70;64.70
47805;DHT22;33568;45.286;9.900;2023-07-08T09:02:30;31.90;65.70
47805;DHT22;33568;45.286;9.900;2023-07-08T09:05:05;31.70;65.60
47805;DHT22;33568;45.286;9.900;2023-07-08T09:13:25;31.70;62.80
47805;DHT22;33568;45.286;9.900;2023-07-08T09:27:06;32.40;62.60
47805;DHT22;33568;45.286;9.900;2023-07-08T09:29:33;32.40;62.50
47805;DHT22;33568;45.286;9.900;2023-07-08T09:32:22;32.40;61.40
47805;DHT22;33568;45.286;9.900;2023-07-08T09:35:08;32.50;60.00
47805;DHT22;33568;45.286;9.900;2023-07-08T09:37:38;32.70;60.20
47805;DHT22;33568;45.286;9.900;2023-07-08T09:40:15;32.70;60.50
47805;DHT22;33568;45.286;9.900;2023-07-08T09:42:44;32.80;58.10
47805;DHT22;33568;45.286;9.900;2023-07-08T09:45:23;33.00;59.60
47805;DHT22;33568;45.286;9.900;2023-07-08T09:47:56;32.90;58.20
47805;DHT22;33568;45.286;9.900;2023-07-08T09:50:29;32.90;57.40
47805;DHT22;33568;45.286;9.900;2023-07-08T09:53:00;33.00;56.60
47805;DHT22;33568;45.286;9.900;2023-07-08T09:55:27;33.10;56.20
47805;DHT22;33568;45.286;9.900;2023-07-08T09:58:08;33.20;56.50
47805;DHT22;33568;45.286;9.900;2023-07-08T10:00:42;33.20;56.60
47805;DHT22;33568;45.286;9.900;2023-07-08T10:03:33;33.10;56.00
47805;DHT22;33568;45.286;9.900;2023-07-08T10:06:17;33.20;53.30
47805;DHT22;33568;45.286;9.900;2023-07-08T10:08:49;33.40;54.70
47805;DHT22;33568;45.286;9.900;2023-07-08T10:11:39;33.60;55.20
47805;DHT22;33568;45.286;9.900;2023-07-08T10:14:47;33.60;53.60
47805;DHT22;33568;45.286;9.900;2023-07-08T10:17:27;33.60;53.50
47805;DHT22;33568;45.286;9.900;2023-07-08T10:19:58;33.60;53.80
47805;DHT22;33568;45.286;9.900;2023-07-08T10:25:24;33.80;53.80
47805;DHT22;33568;45.286;9.900;2023-07-08T10:28:19;33.90;53.80
47805;DHT22;33568;45.286;9.900;2023-07-08T10:31:16;33.90;53.50
47805;DHT22;33568;45.286;9.900;2023-07-08T10:34:09;34.00;54.90
47805;DHT22;33568;45.286;9.900;2023-07-08T10:37:04;33.90;55.90
47805;DHT22;33568;45.286;9.900;2023-07-08T10:42:43;34.10;52.70
47805;DHT22;33568;45.286;9.900;2023-07-08T10:45:26;34.20;53.60
47805;DHT22;33568;45.286;9.900;2023-07-08T10:56:33;34.50;54.30
47805;DHT22;33568;45.286;9.900;2023-07-08T11:04:34;34.80;50.10
47805;DHT22;33568;45.286;9.900;2023-07-08T11:09:59;34.90;51.60
47805;DHT22;33568;45.286;9.900;2023-07-08T11:15:22;34.90;51.80
47805;DHT22;33568;45.286;9.900;2023-07-08T11:24:34;35.00;51.30
47805;DHT22;33568;45.286;9.900;2023-07-08T11:27:27;35.10;53.60
47805;DHT22;33568;45.286;9.900;2023-07-08T11:32:34;35.40;52.00
47805;DHT22;33568;45.286;9.900;2023-07-08T11:35:05;35.40;51.50
47805;DHT22;33568;45.286;9.900;2023-07-08T11:37:34;35.40;50.10
47805;DHT22;33568;45.286;9.900;2023-07-08T11:40:15;35.40;49.80
47805;DHT22;33568;45.286;9.900;2023-07-08T11:42:47;35.30;48.40
47805;DHT22;33568;45.286;9.900;2023-07-08T11:45:31;35.20;48.80
47805;DHT22;33568;45.286;9.900;2023-07-08T11:48:15;35.30;49.10
47805;DHT22;33568;45.286;9.900;2023-07-08T11:50:45;35.40;47.80
47805;DHT22;33568;45.286;9.900;2023-07-08T12:01:04;35.60;49.20
47805;DHT22;33568;45.286;9.900;2023-07-08T12:03:39;35.80;49.50
47805;DHT22;33568;45.286;9.900;2023-07-08T12:08:56;35.70;48.40
47805;DHT22;33568;45.286;9.900;2023-07-08T12:11:34;35.70;48.10
47805;DHT22;33568;45.286;9.900;2023-07-08T12:14:03;35.50;47.40
47805;DHT22;33568;45.286;9.900;2023-07-08T12:16:31;35.60;48.80
47805;DHT22;33568;45.286;9.900;2023-07-08T12:18:59;35.60;50.00
47805;DHT22;33568;45.286;9.900;2023-07-08T12:21:27;35.60;49.50
47805;DHT22;33568;45.286;9.900;2023-07-08T12:23:54;35.60;49.00
47805;DHT22;33568;45.286;9.900;2023-07-08T12:26:22;35.40;48.50
47805;DHT22;33568;45.286;9.900;2023-07-08T12:28:51;35.20;49.10
47805;DHT22;33568;45.286;9.900;2023-07-08T12:31:22;35.00;49.00
47805;DHT22;33568;45.286;9.900;2023-07-08T12:33:50;34.90;49.30
47805;DHT22;33568;45.286;9.900;2023-07-08T12:36:28;35.10;48.50
47805;DHT22;33568;45.286;9.900;2023-07-08T12:38:56;35.20;46.40
47805;DHT22;33568;45.286;9.900;2023-07-08T12:41:28;35.30;47.40
47805;DHT22;33568;45.286;9.900;2023-07-08T12:43:55;35.40;47.10
47805;DHT22;33568;45.286;9.900;2023-07-08T12:46:22;35.50;46.60
47805;DHT22;33568;45.286;9.900;2023-07-08T12:48:51;35.50;47.10
47805;DHT22;33568;45.286;9.900;2023-07-08T12:51:24;35.50;46.90
47805;DHT22;33568;45.286;9.900;2023-07-08T12:53:52;35.50;47.60
47805;DHT22;33568;45.286;9.900;2023-07-08T12:56:21;35.60;47.10
47805;DHT22;33568;45.286;9.900;2023-07-08T12:58:55;35.60;47.80
47805;DHT22;33568;45.286;9.900;2023-07-08T13:01:26;35.70;46.50
47805;DHT22;33568;45.286;9.900;2023-07-08T13:03:58;35.60;46.80
47805;DHT22;33568;45.286;9.900;2023-07-08T13:06:29;35.70;47.10
47805;DHT22;33568;45.286;9.900;2023-07-08T13:09:07;35.60;46.90
47805;DHT22;33568;45.286;9.900;2023-07-08T13:11:36;35.60;45.60
47805;DHT22;33568;45.286;9.900;2023-07-08T13:14:05;35.60;46.50
47805;DHT22;33568;45.286;9.900;2023-07-08T13:16:34;35.70;46.60
47805;DHT22;33568;45.286;9.900;2023-07-08T13:19:01;35.70;47.60
47805;DHT22;33568;45.286;9.900;2023-07-08T13:21:29;35.80;47.20
47805;DHT22;33568;45.286;9.900;2023-07-08T13:23:57;35.80;47.90
47805;DHT22;33568;45.286;9.900;2023-07-08T13:26:28;35.80;47.40
47805;DHT22;33568;45.286;9.900;2023-07-08T13:29:11;35.80;46.60
47805;DHT22;33568;45.286;9.900;2023-07-08T13:31:39;35.80;45.30
47805;DHT22;33568;45.286;9.900;2023-07-08T13:34:09;35.80;46.40
47805;DHT22;33568;45.286;9.900;2023-07-08T13:36:40;35.80;46.40
47805;DHT22;33568;45.286;9.900;2023-07-08T13:39:17;35.80;46.50
47805;DHT22;33568;45.286;9.900;2023-07-08T13:41:45;35.80;46.10
47805;DHT22;33568;45.286;9.900;2023-07-08T13:44:12;35.60;46.00
47805;DHT22;33568;45.286;9.900;2023-07-08T13:46:45;35.50;45.50
47805;DHT22;33568;45.286;9.900;2023-07-08T13:49:39;35.40;44.90
47805;DHT22;33568;45.286;9.900;2023-07-08T13:54:47;35.60;45.80
47805;DHT22;33568;45.286;9.900;2023-07-08T13:57:21;35.70;44.70
47805;DHT22;33568;45.286;9.900;2023-07-08T13:59:48;35.70;44.80
47805;DHT22;33568;45.286;9.900;2023-07-08T14:02:17;35.80;45.00
47805;DHT22;33568;45.286;9.900;2023-07-08T14:04:44;35.90;44.70
47805;DHT22;33568;45.286;9.900;2023-07-08T14:07:20;35.80;44.90
47805;DHT22;33568;45.286;9.900;2023-07-08T14:09:47;35.80;43.70
47805;DHT22;33568;45.286;9.900;2023-07-08T14:12:13;35.90;44.00
47805;DHT22;33568;45.286;9.900;2023-07-08T14:14:40;35.90;44.30
47805;DHT22;33568;45.286;9.900;2023-07-08T14:17:19;35.90;44.30
47805;DHT22;33568;45.286;9.900;2023-07-08T14:19:50;36.00;46.80
47805;DHT22;33568;45.286;9.900;2023-07-08T14:24:50;36.00;45.30
47805;DHT22;33568;45.286;9.900;2023-07-08T14:27:18;36.10;46.80
47805;DHT22;33568;45.286;9.900;2023-07-08T14:29:50;36.10;45.90
47805;DHT22;33568;45.286;9.900;2023-07-08T14:32:26;36.10;45.10
47805;DHT22;33568;45.286;9.900;2023-07-08T14:34:58;36.20;46.30
47805;DHT22;33568;45.286;9.900;2023-07-08T14:37:29;36.10;45.50
47805;DHT22;33568;45.286;9.900;2023-07-08T14:39:56;36.10;45.40
47805;DHT22;33568;45.286;9.900;2023-07-08T14:42:26;36.20;46.70
47805;DHT22;33568;45.286;9.900;2023-07-08T14:44:54;36.50;46.20
47805;DHT22;33568;45.286;9.900;2023-07-08T14:47:20;36.40;45.60
47805;DHT22;33568;45.286;9.900;2023-07-08T14:49:49;36.30;45.20
47805;DHT22;33568;45.286;9.900;2023-07-08T14:52:15;36.50;46.70
47805;DHT22;33568;45.286;9.900;2023-07-08T14:54:42;36.50;45.50
47805;DHT22;33568;45.286;9.900;2023-07-08T14:57:11;36.40;44.70
47805;DHT22;33568;45.286;9.900;2023-07-08T14:59:41;36.40;45.00
47805;DHT22;33568;45.286;9.900;2023-07-08T15:02:19;36.30;44.30
47805;DHT22;33568;45.286;9.900;2023-07-08T15:04:46;35.80;45.00
47805;DHT22;33568;45.286;9.900;2023-07-08T15:07:13;35.80;45.20
47805;DHT22;33568;45.286;9.900;2023-07-08T15:09:40;35.90;46.60
47805;DHT22;33568;45.286;9.900;2023-07-08T15:12:10;36.10;46.40
47805;DHT22;33568;45.286;9.900;2023-07-08T15:14:41;36.20;46.70
47805;DHT22;33568;45.286;9.900;2023-07-08T15:17:14;36.40;45.60
47805;DHT22;33568;45.286;9.900;2023-07-08T15:19:44;36.40;44.20
47805;DHT22;33568;45.286;9.900;2023-07-08T15:22:11;36.50;45.60
47805;DHT22;33568;45.286;9.900;2023-07-08T15:24:40;36.60;46.30
47805;DHT22;33568;45.286;9.900;2023-07-08T15:27:10;36.60;45.30
47805;DHT22;33568;45.286;9.900;2023-07-08T15:29:37;36.60;45.20
47805;DHT22;33568;45.286;9.900;2023-07-08T15:32:11;36.60;46.00
47805;DHT22;33568;45.286;9.900;2023-07-08T15:34:38;36.80;46.70
47805;DHT22;33568;45.286;9.900;2023-07-08T15:37:05;36.80;46.00
47805;DHT22;33568;45.286;9.900;2023-07-08T15:39:32;36.80;46.20
47805;DHT22;33568;45.286;9.900;2023-07-08T15:41:58;36.60;45.30
47805;DHT22;33568;45.286;9.900;2023-07-08T15:44:25;36.50;45.80
47805;DHT22;33568;45.286;9.900;2023-07-08T15:46:52;36.50;45.20
47805;DHT22;33568;45.286;9.900;2023-07-08T15:49:20;36.30;44.70
47805;DHT22;33568;45.286;9.900;2023-07-08T15:51:50;36.30;45.70
47805;DHT22;33568;45.286;9.900;2023-07-08T15:54:18;36.30;45.40
47805;DHT22;33568;45.286;9.900;2023-07-08T15:56:46;36.30;43.90
47805;DHT22;33568;45.286;9.900;2023-07-08T15:59:21;36.30;45.20
47805;DHT22;33568;45.286;9.900;2023-07-08T16:01:48;36.40;44.40
47805;DHT22;33568;45.286;9.900;2023-07-08T16:04:25;36.40;46.50
47805;DHT22;33568;45.286;9.900;2023-07-08T16:06:52;36.50;44.40
47805;DHT22;33568;45.286;9.900;2023-07-08T16:09:18;36.40;44.70
47805;DHT22;33568;45.286;9.900;2023-07-08T16:11:45;36.30;45.10
47805;DHT22;33568;45.286;9.900;2023-07-08T16:14:14;36.00;47.10
47805;DHT22;33568;45.286;9.900;2023-07-08T16:16:42;35.90;46.70
47805;DHT22;33568;45.286;9.900;2023-07-08T16:19:13;35.90;46.10
47805;DHT22;33568;45.286;9.900;2023-07-08T16:21:40;35.90;47.70
47805;DHT22;33568;45.286;9.900;2023-07-08T16:24:07;36.00;46.50
47805;DHT22;33568;45.286;9.900;2023-07-08T16:26:34;35.80;46.70
47805;DHT22;33568;45.286;9.900;2023-07-08T16:29:01;35.80;48.20
47805;DHT22;33568;45.286;9.900;2023-07-08T16:31:28;35.90;46.80
47805;DHT22;33568;45.286;9.900;2023-07-08T16:33:58;35.90;45.10
47805;DHT22;33568;45.286;9.900;2023-07-08T16:36:26;35.90;44.40
47805;DHT22;33568;45.286;9.900;2023-07-08T16:38:54;35.80;43.80
47805;DHT22;33568;45.286;9.900;2023-07-08T16:41:33;35.70;44.60
47805;DHT22;33568;45.286;9.900;2023-07-08T16:44:15;35.60;44.70
47805;DHT22;33568;45.286;9.900;2023-07-08T16:46:43;35.60;44.00
47805;DHT22;33568;45.286;9.900;2023-07-08T16:49:09;35.50;43.70
47805;DHT22;33568;45.286;9.900;2023-07-08T16:51:36;35.60;44.20
47805;DHT22;33568;45.286;9.900;2023-07-08T16:54:17;35.50;43.90
47805;DHT22;33568;45.286;9.900;2023-07-08T16:56:45;35.40;44.20
47805;DHT22;33568;45.286;9.900;2023-07-08T16:59:14;35.40;44.50
47805;DHT22;33568;45.286;9.900;2023-07-08T17:01:41;35.50;44.90
47805;DHT22;33568;45.286;9.900;2023-07-08T17:04:11;35.50;45.30